createdAt,value
2023-01-20T00:14:50.159Z,24
2023-01-20T00:43:56.455Z,22
2023-01-20T01:12:51.060Z,20
2023-01-20T01:41:50.114Z,19
2023-01-20T02:10:55.997Z,17
2023-01-20T02:39:53.640Z,20
2023-01-20T03:08:47.554Z,17
2023-01-20T03:38:03.876Z,17
2023-01-20T04:07:01.839Z,19
2023-01-20T04:36:01.571Z,19
2023-01-20T05:05:02.334Z,19
2023-01-20T05:34:04.707Z,20
2023-01-20T06:03:02.656Z,22
2023-01-20T06:31:50.832Z,26
2023-01-20T07:00:43.353Z,21
2023-01-20T07:29:39.291Z,21
2023-01-20T07:58:18.641Z,21
2023-01-20T08:27:31.074Z,20
2023-01-20T08:56:41.067Z,19
2023-01-20T09:25:35.194Z,20
2023-01-20T09:54:32.123Z,18
2023-01-20T10:23:41.901Z,19
2023-01-20T10:52:27.250Z,19
2023-01-20T11:21:31.358Z,19
2023-01-20T11:50:32.693Z,23
2023-01-20T12:19:23.853Z,24
2023-01-20T12:47:50.608Z,22
2023-01-20T13:16:37.489Z,20
2023-01-20T13:45:15.260Z,19
2023-01-20T14:13:42.460Z,18
2023-01-20T14:42:56.077Z,20
2023-01-20T15:11:43.735Z,20
2023-01-20T15:40:42.275Z,20
2023-01-20T16:09:35.758Z,22
2023-01-20T16:38:42.962Z,22
2023-01-20T17:07:47.108Z,27
2023-01-20T17:36:50.133Z,29
2023-01-20T18:05:50.006Z,27
2023-01-20T18:34:49.017Z,26
2023-01-20T19:03:49.074Z,27
2023-01-20T19:32:42.700Z,27
2023-01-20T20:01:36.297Z,26
2023-01-20T20:30:28.579Z,26
2023-01-20T20:59:07.480Z,27
2023-01-20T21:27:27.129Z,27
2023-01-20T21:55:43.957Z,22
2023-01-20T22:24:03.844Z,22
2023-01-20T22:52:19.121Z,22
2023-01-20T23:20:38.894Z,19
2023-01-20T23:48:53.076Z,17
